sensor_id;sensor_type;location;lat;lon;timestamp;pressure;altitude;pressure_sealevel;temperature;humidity
78223;BME280;67497;53.058;21.618;2023-11-18T00:01:43;100648.75;;;-1.06;89.35
78223;BME280;67497;53.058;21.618;2023-11-18T00:03:43;100678.03;;;-0.81;89.48
78223;BME280;67497;53.058;21.618;2023-11-18T00:05:44;100675.53;;;-0.86;89.60
78223;BME280;67497;53.058;21.618;2023-11-18T00:07:44;100679.84;;;-0.82;90.04
78223;BME280;67497;53.058;21.618;2023-11-18T00:09:44;100668.56;;;-0.90;90.03
78223;BME280;67497;53.058;21.618;2023-11-18T00:11:46;100639.84;;;-1.08;89.90
78223;BME280;67497;53.058;21.618;2023-11-18T00:13:46;100634.28;;;-1.03;89.84
78223;BME280;67497;53.058;21.618;2023-11-18T00:15:47;100645.44;;;-0.94;89.34
78223;BME280;67497;53.058;21.618;2023-11-18T00:17:48;100665.06;;;-0.92;89.61
78223;BME280;67497;53.058;21.618;2023-11-18T00:19:48;100685.06;;;-0.79;89.77
78223;BME280;67497;53.058;21.618;2023-11-18T00:21:49;100678.88;;;-0.81;90.07
78223;BME280;67497;53.058;21.618;2023-11-18T00:23:49;100674.59;;;-0.85;89.57
78223;BME280;67497;53.058;21.618;2023-11-18T00:25:49;100663.53;;;-0.97;89.32
78223;BME280;67497;53.058;21.618;2023-11-18T00:27:50;100669.66;;;-0.94;89.96
78223;BME280;67497;53.058;21.618;2023-11-18T00:29:50;100689.84;;;-0.85;89.91
78223;BME280;67497;53.058;21.618;2023-11-18T00:31:50;100686.25;;;-0.84;90.11
78223;BME280;67497;53.058;21.618;2023-11-18T00:33:51;100694.22;;;-0.83;89.78
78223;BME280;67497;53.058;21.618;2023-11-18T00:35:52;100685.50;;;-0.88;89.60
78223;BME280;67497;53.058;21.618;2023-11-18T00:37:54;100697.69;;;-0.81;89.81
78223;BME280;67497;53.058;21.618;2023-11-18T00:39:54;100700.34;;;-0.79;89.65
78223;BME280;67497;53.058;21.618;2023-11-18T00:41:54;100709.34;;;-0.80;89.69
78223;BME280;67497;53.058;21.618;2023-11-18T00:43:56;100707.63;;;-0.81;90.23
78223;BME280;67497;53.058;21.618;2023-11-18T00:45:56;100701.34;;;-0.82;89.63
78223;BME280;67497;53.058;21.618;2023-11-18T00:47:59;100702.56;;;-0.89;89.86
78223;BME280;67497;53.058;21.618;2023-11-18T00:49:59;100683.25;;;-0.97;90.03
78223;BME280;67497;53.058;21.618;2023-11-18T00:52:02;100710.34;;;-0.83;89.91
78223;BME280;67497;53.058;21.618;2023-11-18T00:54:04;100711.22;;;-0.82;89.87
78223;BME280;67497;53.058;21.618;2023-11-18T00:56:07;100708.59;;;-0.84;89.72
78223;BME280;67497;53.058;21.618;2023-11-18T00:58:10;100699.09;;;-0.91;89.52
78223;BME280;67497;53.058;21.618;2023-11-18T01:00:14;100720.03;;;-0.79;89.80
78223;BME280;67497;53.058;21.618;2023-11-18T01:02:15;100713.84;;;-0.81;89.97
78223;BME280;67497;53.058;21.618;2023-11-18T01:04:16;100725.34;;;-0.77;89.55
78223;BME280;67497;53.058;21.618;2023-11-18T01:06:16;100717.34;;;-0.79;89.50
78223;BME280;67497;53.058;21.618;2023-11-18T01:08:17;100719.31;;;-0.82;89.25
78223;BME280;67497;53.058;21.618;2023-11-18T01:10:18;100709.94;;;-0.92;89.72
78223;BME280;67497;53.058;21.618;2023-11-18T01:12:19;100716.63;;;-0.82;89.76
78223;BME280;67497;53.058;21.618;2023-11-18T01:14:20;100710.78;;;-0.92;89.39
78223;BME280;67497;53.058;21.618;2023-11-18T01:16:23;100716.63;;;-0.82;89.63
78223;BME280;67497;53.058;21.618;2023-11-18T01:18:24;100711.50;;;-0.88;89.47
78223;BME280;67497;53.058;21.618;2023-11-18T01:20:24;100722.03;;;-0.84;89.49
78223;BME280;67497;53.058;21.618;2023-11-18T01:22:25;100723.16;;;-0.88;89.63
78223;BME280;67497;53.058;21.618;2023-11-18T01:24:25;100719.66;;;-0.90;89.64
78223;BME280;67497;53.058;21.618;2023-11-18T01:26:26;100732.00;;;-0.86;89.38
78223;BME280;67497;53.058;21.618;2023-11-18T01:28:27;100731.13;;;-0.86;89.50
78223;BME280;67497;53.058;21.618;2023-11-18T01:30:29;100724.03;;;-0.87;89.32
78223;BME280;67497;53.058;21.618;2023-11-18T01:32:30;100732.88;;;-0.85;89.44
78223;BME280;67497;53.058;21.618;2023-11-18T01:34:30;100724.16;;;-0.90;89.69
78223;BME280;67497;53.058;21.618;2023-11-18T01:36:31;100735.66;;;-0.87;90.09
78223;BME280;67497;53.058;21.618;2023-11-18T01:38:31;100726.72;;;-0.87;89.54
78223;BME280;67497;53.058;21.618;2023-11-18T01:40:33;100732.16;;;-0.89;89.91
78223;BME280;67497;53.058;21.618;2023-11-18T01:42:34;100719.00;;;-0.95;89.68
78223;BME280;67497;53.058;21.618;2023-11-18T01:44:34;100734.78;;;-0.87;89.92
78223;BME280;67497;53.058;21.618;2023-11-18T01:46:35;100728.38;;;-0.85;89.96
78223;BME280;67497;53.058;21.618;2023-11-18T01:48:37;100712.09;;;-1.00;89.86
78223;BME280;67497;53.058;21.618;2023-11-18T01:50:38;100723.16;;;-0.88;89.49
78223;BME280;67497;53.058;21.618;2023-11-18T01:52:41;100713.41;;;-0.90;89.79
78223;BME280;67497;53.058;21.618;2023-11-18T01:54:41;100721.25;;;-0.86;89.16
78223;BME280;67497;53.058;21.618;2023-11-18T01:56:48;100725.75;;;-0.86;89.37
78223;BME280;67497;53.058;21.618;2023-11-18T01:58:49;100722.22;;;-0.87;89.44
78223;BME280;67497;53.058;21.618;2023-11-18T02:00:51;100725.94;;;-0.89;89.32
78223;BME280;67497;53.058;21.618;2023-11-18T02:02:51;100726.91;;;-0.92;88.89
78223;BME280;67497;53.058;21.618;2023-11-18T02:04:52;100724.22;;;-0.92;89.04
78223;BME280;67497;53.058;21.618;2023-11-18T02:06:52;100720.69;;;-0.92;89.31
78223;BME280;67497;53.058;21.618;2023-11-18T02:08:54;100717.31;;;-0.97;89.03
78223;BME280;67497;53.058;21.618;2023-11-18T02:10:57;100735.94;;;-0.93;89.07
78223;BME280;67497;53.058;21.618;2023-11-18T02:13:06;100727.06;;;-0.95;89.25
78223;BME280;67497;53.058;21.618;2023-11-18T02:15:10;100722.63;;;-0.96;89.60
78223;BME280;67497;53.058;21.618;2023-11-18T02:17:14;100726.19;;;-0.95;89.19
78223;BME280;67497;53.058;21.618;2023-11-18T02:19:23;100713.97;;;-1.02;89.01
78223;BME280;67497;53.058;21.618;2023-11-18T02:21:24;100723.69;;;-1.00;89.34
78223;BME280;67497;53.058;21.618;2023-11-18T02:23:26;100728.16;;;-0.99;88.97
78223;BME280;67497;53.058;21.618;2023-11-18T02:25:27;100734.63;;;-1.03;89.07
78223;BME280;67497;53.058;21.618;2023-11-18T02:27:30;100717.16;;;-1.13;89.07
78223;BME280;67497;53.058;21.618;2023-11-18T02:29:33;100736.34;;;-1.02;88.63
78223;BME280;67497;53.058;21.618;2023-11-18T02:31:35;100750.75;;;-1.03;88.87
78223;BME280;67497;53.058;21.618;2023-11-18T02:33:49;100742.31;;;-1.14;88.93
78223;BME280;67497;53.058;21.618;2023-11-18T02:35:59;100750.16;;;-1.09;89.09
78223;BME280;67497;53.058;21.618;2023-11-18T02:38:00;100740.09;;;-1.25;88.66
78223;BME280;67497;53.058;21.618;2023-11-18T02:40:07;100746.31;;;-1.24;88.75
78223;BME280;67497;53.058;21.618;2023-11-18T02:42:12;100745.41;;;-1.23;88.44
78223;BME280;67497;53.058;21.618;2023-11-18T02:44:13;100748.09;;;-1.23;88.50
78223;BME280;67497;53.058;21.618;2023-11-18T02:46:18;100751.88;;;-1.27;88.92
78223;BME280;67497;53.058;21.618;2023-11-18T02:48:19;100760.72;;;-1.25;88.88
78223;BME280;67497;53.058;21.618;2023-11-18T02:50:19;100758.84;;;-1.23;88.72
78223;BME280;67497;53.058;21.618;2023-11-18T02:52:20;100757.06;;;-1.24;88.71
78223;BME280;67497;53.058;21.618;2023-11-18T02:54:21;100748.50;;;-1.32;89.33
78223;BME280;67497;53.058;21.618;2023-11-18T02:56:22;100765.44;;;-1.30;88.62
78223;BME280;67497;53.058;21.618;2023-11-18T02:58:22;100762.75;;;-1.30;89.38
78223;BME280;67497;53.058;21.618;2023-11-18T03:00:22;100767.16;;;-1.29;89.19
78223;BME280;67497;53.058;21.618;2023-11-18T03:02:23;100755.88;;;-1.37;89.06
78223;BME280;67497;53.058;21.618;2023-11-18T03:04:23;100779.81;;;-1.31;88.99
78223;BME280;67497;53.058;21.618;2023-11-18T03:06:24;100724.69;;;-1.60;88.87
78223;BME280;67497;53.058;21.618;2023-11-18T03:08:25;100777.25;;;-1.34;88.31
78223;BME280;67497;53.058;21.618;2023-11-18T03:10:25;100772.88;;;-1.37;88.67
78223;BME280;67497;53.058;21.618;2023-11-18T03:12:26;100773.63;;;-1.33;88.67
78223;BME280;67497;53.058;21.618;2023-11-18T03:14:27;100775.50;;;-1.35;89.26
78223;BME280;67497;53.058;21.618;2023-11-18T03:16:28;100774.69;;;-1.37;89.10
78223;BME280;67497;53.058;21.618;2023-11-18T03:18:29;100782.75;;;-1.37;88.35
78223;BME280;67497;53.058;21.618;2023-11-18T03:20:33;100772.47;;;-1.48;89.00
78223;BME280;67497;53.058;21.618;2023-11-18T03:22:33;100777.72;;;-1.45;89.23
78223;BME280;67497;53.058;21.618;2023-11-18T03:24:33;100779.41;;;-1.42;89.05
78223;BME280;67497;53.058;21.618;2023-11-18T03:26:34;100778.66;;;-1.46;88.64
78223;BME280;67497;53.058;21.618;2023-11-18T03:28:34;100768.13;;;-1.50;89.22
78223;BME280;67497;53.058;21.618;2023-11-18T03:30:36;100787.41;;;-1.41;88.89
78223;BME280;67497;53.058;21.618;2023-11-18T03:32:39;100797.28;;;-1.41;88.55
78223;BME280;67497;53.058;21.618;2023-11-18T03:34:40;100786.44;;;-1.40;88.33
78223;BME280;67497;53.058;21.618;2023-11-18T03:36:40;100788.13;;;-1.37;88.37
78223;BME280;67497;53.058;21.618;2023-11-18T03:38:40;100791.06;;;-1.43;88.66
78223;BME280;67497;53.058;21.618;2023-11-18T03:40:41;100792.03;;;-1.44;89.20
78223;BME280;67497;53.058;21.618;2023-11-18T03:42:41;100801.03;;;-1.45;88.82
78223;BME280;67497;53.058;21.618;2023-11-18T03:44:42;100792.16;;;-1.47;88.57
78223;BME280;67497;53.058;21.618;2023-11-18T03:46:42;100792.03;;;-1.44;88.83
78223;BME280;67497;53.058;21.618;2023-11-18T03:48:44;100806.94;;;-1.37;89.19
78223;BME280;67497;53.058;21.618;2023-11-18T03:50:44;100804.50;;;-1.43;88.32
78223;BME280;67497;53.058;21.618;2023-11-18T03:52:44;100807.69;;;-1.34;88.36
78223;BME280;67497;53.058;21.618;2023-11-18T03:54:45;100803.38;;;-1.38;88.42
78223;BME280;67497;53.058;21.618;2023-11-18T03:56:45;100799.97;;;-1.41;88.12
78223;BME280;67497;53.058;21.618;2023-11-18T03:58:46;100808.91;;;-1.41;88.18
78223;BME280;67497;53.058;21.618;2023-11-18T04:00:49;100810.63;;;-1.40;88.39
78223;BME280;67497;53.058;21.618;2023-11-18T04:02:49;100805.25;;;-1.40;88.29
78223;BME280;67497;53.058;21.618;2023-11-18T04:04:49;100808.28;;;-1.47;89.07
78223;BME280;67497;53.058;21.618;2023-11-18T04:06:50;100809.88;;;-1.43;88.46
78223;BME280;67497;53.058;21.618;2023-11-18T04:08:50;100812.56;;;-1.43;88.35
78223;BME280;67497;53.058;21.618;2023-11-18T04:10:51;100818.09;;;-1.46;88.50
78223;BME280;67497;53.058;21.618;2023-11-18T04:12:51;100812.19;;;-1.54;88.83
78223;BME280;67497;53.058;21.618;2023-11-18T04:14:52;100823.06;;;-1.57;88.47
78223;BME280;67497;53.058;21.618;2023-11-18T04:16:53;100821.16;;;-1.55;88.30
78223;BME280;67497;53.058;21.618;2023-11-18T04:18:55;100815.16;;;-1.62;88.37
78223;BME280;67497;53.058;21.618;2023-11-18T04:20:55;100806.25;;;-1.62;89.06
78223;BME280;67497;53.058;21.618;2023-11-18T04:22:58;100812.47;;;-1.62;88.22
78223;BME280;67497;53.058;21.618;2023-11-18T04:24:58;100806.31;;;-1.64;87.97
78223;BME280;67497;53.058;21.618;2023-11-18T04:26:58;100825.66;;;-1.56;87.64
78223;BME280;67497;53.058;21.618;2023-11-18T04:28:58;100832.91;;;-1.58;88.00
78223;BME280;67497;53.058;21.618;2023-11-18T04:30:59;100832.03;;;-1.58;87.87
78223;BME280;67497;53.058;21.618;2023-11-18T04:32:59;100826.03;;;-1.65;88.19
78223;BME280;67497;53.058;21.618;2023-11-18T04:35:00;100841.91;;;-1.59;88.35
78223;BME280;67497;53.058;21.618;2023-11-18T04:37:06;100847.28;;;-1.59;88.49
78223;BME280;67497;53.058;21.618;2023-11-18T04:39:07;100840.09;;;-1.58;88.08
78223;BME280;67497;53.058;21.618;2023-11-18T04:41:07;100847.09;;;-1.54;88.39
78223;BME280;67497;53.058;21.618;2023-11-18T04:43:08;100856.34;;;-1.61;88.59
78223;BME280;67497;53.058;21.618;2023-11-18T04:45:11;100850.78;;;-1.57;88.95
78223;BME280;67497;53.058;21.618;2023-11-18T04:47:11;100852.66;;;-1.59;89.14
78223;BME280;67497;53.058;21.618;2023-11-18T04:49:11;100844.59;;;-1.59;88.28
78223;BME280;67497;53.058;21.618;2023-11-18T04:51:11;100848.16;;;-1.58;89.38
78223;BME280;67497;53.058;21.618;2023-11-18T04:53:12;100839.28;;;-1.60;89.05
78223;BME280;67497;53.058;21.618;2023-11-18T04:55:12;100844.66;;;-1.60;89.04
78223;BME280;67497;53.058;21.618;2023-11-18T04:57:14;100854.44;;;-1.59;88.56
78223;BME280;67497;53.058;21.618;2023-11-18T04:59:14;100848.91;;;-1.55;88.83
78223;BME280;67497;53.058;21.618;2023-11-18T05:01:14;100853.41;;;-1.55;87.95
78223;BME280;67497;53.058;21.618;2023-11-18T05:03:16;100857.13;;;-1.59;88.19
78223;BME280;67497;53.058;21.618;2023-11-18T05:05:17;100843.16;;;-1.67;88.10
78223;BME280;67497;53.058;21.618;2023-11-18T05:07:17;100858.00;;;-1.59;88.76
78223;BME280;67497;53.058;21.618;2023-11-18T05:09:17;100858.09;;;-1.60;88.33
78223;BME280;67497;53.058;21.618;2023-11-18T05:11:18;100857.13;;;-1.59;88.49
78223;BME280;67497;53.058;21.618;2023-11-18T05:13:18;100839.00;;;-1.74;88.73
78223;BME280;67497;53.058;21.618;2023-11-18T05:15:19;100852.97;;;-1.66;89.18
78223;BME280;67497;53.058;21.618;2023-11-18T05:17:19;100864.50;;;-1.64;88.90
78223;BME280;67497;53.058;21.618;2023-11-18T05:19:20;100859.91;;;-1.61;89.12
78223;BME280;67497;53.058;21.618;2023-11-18T05:21:20;100865.06;;;-1.56;88.83
78223;BME280;67497;53.058;21.618;2023-11-18T05:23:21;100861.72;;;-1.61;88.08
78223;BME280;67497;53.058;21.618;2023-11-18T05:25:22;100865.19;;;-1.59;88.27
78223;BME280;67497;53.058;21.618;2023-11-18T05:27:22;100866.94;;;-1.58;88.73
78223;BME280;67497;53.058;21.618;2023-11-18T05:29:22;100864.41;;;-1.61;87.88
78223;BME280;67497;53.058;21.618;2023-11-18T05:31:24;100872.28;;;-1.57;88.00
78223;BME280;67497;53.058;21.618;2023-11-18T05:33:24;100870.78;;;-1.64;88.45
78223;BME280;67497;53.058;21.618;2023-11-18T05:35:26;100878.06;;;-1.67;88.95
78223;BME280;67497;53.058;21.618;2023-11-18T05:37:28;100876.94;;;-1.62;87.75
78223;BME280;67497;53.058;21.618;2023-11-18T05:39:29;100878.81;;;-1.64;88.01
78223;BME280;67497;53.058;21.618;2023-11-18T05:41:31;100873.41;;;-1.62;87.99
78223;BME280;67497;53.058;21.618;2023-11-18T05:43:33;100863.84;;;-1.69;88.52
78223;BME280;67497;53.058;21.618;2023-11-18T05:45:40;100895.81;;;-1.63;87.97
78223;BME280;67497;53.058;21.618;2023-11-18T05:48:01;100875.66;;;-1.73;87.98
78223;BME280;67497;53.058;21.618;2023-11-18T05:50:03;100894.91;;;-1.62;88.25
78223;BME280;67497;53.058;21.618;2023-11-18T05:52:05;100902.13;;;-1.64;88.55
78223;BME280;67497;53.058;21.618;2023-11-18T05:54:07;100900.13;;;-1.59;88.51
78223;BME280;67497;53.058;21.618;2023-11-18T05:56:07;100906.38;;;-1.59;88.15
78223;BME280;67497;53.058;21.618;2023-11-18T05:58:08;100902.78;;;-1.59;88.27
78223;BME280;67497;53.058;21.618;2023-11-18T06:00:09;100914.38;;;-1.57;88.17
78223;BME280;67497;53.058;21.618;2023-11-18T06:02:10;100916.22;;;-1.59;87.81
78223;BME280;67497;53.058;21.618;2023-11-18T06:04:17;100916.22;;;-1.59;88.34
78223;BME280;67497;53.058;21.618;2023-11-18T06:06:18;100913.69;;;-1.62;87.49
78223;BME280;67497;53.058;21.618;2023-11-18T06:08:18;100912.75;;;-1.61;87.74
78223;BME280;67497;53.058;21.618;2023-11-18T06:10:19;100922.34;;;-1.56;87.65
78223;BME280;67497;53.058;21.618;2023-11-18T06:12:20;100921.56;;;-1.58;88.08
78223;BME280;67497;53.058;21.618;2023-11-18T06:14:21;100907.38;;;-1.61;87.63
78223;BME280;67497;53.058;21.618;2023-11-18T06:16:22;100932.09;;;-1.53;87.56
78223;BME280;67497;53.058;21.618;2023-11-18T06:18:24;100922.59;;;-1.62;87.45
78223;BME280;67497;53.058;21.618;2023-11-18T06:20:24;100938.28;;;-1.51;87.98
78223;BME280;67497;53.058;21.618;2023-11-18T06:22:24;100935.59;;;-1.51;87.40
78223;BME280;67497;53.058;21.618;2023-11-18T06:24:25;100938.44;;;-1.54;88.32
78223;BME280;67497;53.058;21.618;2023-11-18T06:26:26;100933.88;;;-1.52;88.21
78223;BME280;67497;53.058;21.618;2023-11-18T06:28:27;100946.09;;;-1.45;87.54
78223;BME280;67497;53.058;21.618;2023-11-18T06:30:28;100935.47;;;-1.48;87.38
78223;BME280;67497;53.058;21.618;2023-11-18T06:32:28;100943.81;;;-1.54;87.37
78223;BME280;67497;53.058;21.618;2023-11-18T06:34:29;100952.47;;;-1.48;87.75
78223;BME280;67497;53.058;21.618;2023-11-18T06:36:29;100946.34;;;-1.51;87.92
78223;BME280;67497;53.058;21.618;2023-11-18T06:38:31;100930.63;;;-1.60;87.27
78223;BME280;67497;53.058;21.618;2023-11-18T06:40:31;100957.72;;;-1.45;87.47
78223;BME280;67497;53.058;21.618;2023-11-18T06:42:32;100951.47;;;-1.45;87.34
78223;BME280;67497;53.058;21.618;2023-11-18T06:44:34;100951.31;;;-1.41;87.78
78223;BME280;67497;53.058;21.618;2023-11-18T06:46:35;100964.47;;;-1.35;87.45
78223;BME280;67497;53.058;21.618;2023-11-18T06:48:39;100964.59;;;-1.38;87.01
78223;BME280;67497;53.058;21.618;2023-11-18T06:50:40;100963.66;;;-1.37;86.79
78223;BME280;67497;53.058;21.618;2023-11-18T06:52:44;100968.97;;;-1.35;87.12
78223;BME280;67497;53.058;21.618;2023-11-18T06:54:45;100969.47;;;-1.26;86.53
78223;BME280;67497;53.058;21.618;2023-11-18T06:56:45;100969.53;;;-1.27;86.84
78223;BME280;67497;53.058;21.618;2023-11-18T06:58:46;100973.19;;;-1.30;86.52
78223;BME280;67497;53.058;21.618;2023-11-18T07:00:46;100985.91;;;-1.33;86.21
78223;BME280;67497;53.058;21.618;2023-11-18T07:02:48;100975.22;;;-1.35;86.43
78223;BME280;67497;53.058;21.618;2023-11-18T07:04:48;100975.97;;;-1.31;86.99
78223;BME280;67497;53.058;21.618;2023-11-18T07:06:49;100991.16;;;-1.30;86.16
78223;BME280;67497;53.058;21.618;2023-11-18T07:08:49;100998.72;;;-1.18;86.46
78223;BME280;67497;53.058;21.618;2023-11-18T07:10:50;100991.59;;;-1.19;85.92
78223;BME280;67497;53.058;21.618;2023-11-18T07:12:50;100991.59;;;-1.19;86.26
78223;BME280;67497;53.058;21.618;2023-11-18T07:14:50;100999.84;;;-1.24;86.21
78223;BME280;67497;53.058;21.618;2023-11-18T07:16:51;101002.47;;;-1.22;86.23
78223;BME280;67497;53.058;21.618;2023-11-18T07:18:52;100993.84;;;-1.30;86.37
78223;BME280;67497;53.058;21.618;2023-11-18T07:20:52;101000.03;;;-1.28;86.51
78223;BME280;67497;53.058;21.618;2023-11-18T07:22:53;101012.28;;;-1.21;86.45
78223;BME280;67497;53.058;21.618;2023-11-18T07:24:54;100997.34;;;-1.28;86.36
78223;BME280;67497;53.058;21.618;2023-11-18T07:26:54;101008.22;;;-1.31;86.12
78223;BME280;67497;53.058;21.618;2023-11-18T07:28:54;101016.59;;;-1.17;86.38
78223;BME280;67497;53.058;21.618;2023-11-18T07:30:56;101010.84;;;-1.30;85.85
78223;BME280;67497;53.058;21.618;2023-11-18T07:32:58;101015.72;;;-1.17;85.92
78223;BME280;67497;53.058;21.618;2023-11-18T07:35:00;101017.53;;;-1.18;86.41
78223;BME280;67497;53.058;21.618;2023-11-18T07:37:01;101013.91;;;-1.17;85.88
78223;BME280;67497;53.058;21.618;2023-11-18T07:39:02;101015.53;;;-1.13;85.79
78223;BME280;67497;53.058;21.618;2023-11-18T07:41:03;101023.59;;;-1.13;85.79
78223;BME280;67497;53.058;21.618;2023-11-18T07:43:03;101016.34;;;-1.11;85.61
78223;BME280;67497;53.058;21.618;2023-11-18T07:45:05;101022.13;;;-1.00;85.19
78223;BME280;67497;53.058;21.618;2023-11-18T07:47:17;101036.22;;;-0.93;85.05
78223;BME280;67497;53.058;21.618;2023-11-18T07:49:19;101021.53;;;-0.85;85.46
78223;BME280;67497;53.058;21.618;2023-11-18T07:51:21;101019.88;;;-0.89;85.13
78223;BME280;67497;53.058;21.618;2023-11-18T07:53:21;101025.72;;;-0.99;84.94
78223;BME280;67497;53.058;21.618;2023-11-18T07:55:22;101028.69;;;-0.85;84.75
78223;BME280;67497;53.058;21.618;2023-11-18T07:57:23;101031.28;;;-0.82;84.02
78223;BME280;67497;53.058;21.618;2023-11-18T07:59:24;101033.19;;;-0.86;84.61
78223;BME280;67497;53.058;21.618;2023-11-18T08:01:24;101020.50;;;-0.82;83.86
78223;BME280;67497;53.058;21.618;2023-11-18T08:03:26;101033.50;;;-0.72;84.28
78223;BME280;67497;53.058;21.618;2023-11-18T08:05:27;101031.56;;;-0.68;84.51
78223;BME280;67497;53.058;21.618;2023-11-18T08:07:28;101034.06;;;-0.64;84.03
78223;BME280;67497;53.058;21.618;2023-11-18T08:09:29;101038.50;;;-0.63;83.76
78223;BME280;67497;53.058;21.618;2023-11-18T08:11:31;101056.53;;;-0.44;83.22
78223;BME280;67497;53.058;21.618;2023-11-18T08:13:31;101041.06;;;-0.59;83.79
78223;BME280;67497;53.058;21.618;2023-11-18T08:15:32;101058.06;;;-0.59;83.82
78223;BME280;67497;53.058;21.618;2023-11-18T08:17:32;101053.38;;;-0.76;84.03
78223;BME280;67497;53.058;21.618;2023-11-18T08:19:34;101051.81;;;-0.59;84.11
78223;BME280;67497;53.058;21.618;2023-11-18T08:21:34;101052.50;;;-0.54;83.32
78223;BME280;67497;53.058;21.618;2023-11-18T08:23:35;101059.63;;;-0.53;83.78
78223;BME280;67497;53.058;21.618;2023-11-18T08:25:36;101069.56;;;-0.55;83.77
78223;BME280;67497;53.058;21.618;2023-11-18T08:27:36;101068.56;;;-0.53;83.68
78223;BME280;67497;53.058;21.618;2023-11-18T08:29:36;101060.16;;;-0.66;84.40
78223;BME280;67497;53.058;21.618;2023-11-18T08:31:38;101070.19;;;-0.49;83.70
78223;BME280;67497;53.058;21.618;2023-11-18T08:33:39;101074.16;;;-0.57;83.86
78223;BME280;67497;53.058;21.618;2023-11-18T08:35:40;101072.06;;;-0.51;83.29
78223;BME280;67497;53.058;21.618;2023-11-18T08:37:43;101078.72;;;-0.59;83.63
78223;BME280;67497;53.058;21.618;2023-11-18T08:39:43;101063.09;;;-0.72;84.60
78223;BME280;67497;53.058;21.618;2023-11-18T08:41:44;101078.66;;;-0.58;83.93
78223;BME280;67497;53.058;21.618;2023-11-18T08:43:45;101077.91;;;-0.62;84.43
78223;BME280;67497;53.058;21.618;2023-11-18T08:45:49;101072.81;;;-0.47;84.28
78223;BME280;67497;53.058;21.618;2023-11-18T08:47:50;101086.72;;;-0.58;83.63
78223;BME280;67497;53.058;21.618;2023-11-18T08:49:53;101072.81;;;-0.47;83.90
78223;BME280;67497;53.058;21.618;2023-11-18T08:51:55;101082.22;;;-0.37;83.40
78223;BME280;67497;53.058;21.618;2023-11-18T08:53:58;101086.59;;;-0.55;83.44
78223;BME280;67497;53.058;21.618;2023-11-18T08:55:58;101076.84;;;-0.57;84.51
78223;BME280;67497;53.058;21.618;2023-11-18T08:57:59;101088.44;;;-0.35;84.19
78223;BME280;67497;53.058;21.618;2023-11-18T08:59:59;101080.22;;;-0.32;83.37
78223;BME280;67497;53.058;21.618;2023-11-18T09:01:59;101093.69;;;-0.12;83.55
78223;BME280;67497;53.058;21.618;2023-11-18T09:04:00;101090.06;;;-0.11;81.77
78223;BME280;67497;53.058;21.618;2023-11-18T09:06:06;101098.16;;;-0.11;82.61
78223;BME280;67497;53.058;21.618;2023-11-18T09:08:17;101093.31;;;-0.03;81.84
78223;BME280;67497;53.058;21.618;2023-11-18T09:10:17;101099.88;;;0.10;81.62
78223;BME280;67497;53.058;21.618;2023-11-18T09:12:17;101095.56;;;0.06;81.93
78223;BME280;67497;53.058;21.618;2023-11-18T09:14:20;101087.16;;;-0.07;82.24
78223;BME280;67497;53.058;21.618;2023-11-18T09:16:20;101101.56;;;0.13;81.75
78223;BME280;67497;53.058;21.618;2023-11-18T09:18:23;101095.03;;;-0.02;82.04
78223;BME280;67497;53.058;21.618;2023-11-18T09:20:25;101104.88;;;-0.01;81.78
78223;BME280;67497;53.058;21.618;2023-11-18T09:22:27;101103.25;;;-0.05;82.34
78223;BME280;67497;53.058;21.618;2023-11-18T09:24:28;101102.56;;;-0.10;82.78
78223;BME280;67497;53.058;21.618;2023-11-18T09:26:28;101106.38;;;-0.14;81.85
78223;BME280;67497;53.058;21.618;2023-11-18T09:28:30;101108.44;;;-0.01;82.64
78223;BME280;67497;53.058;21.618;2023-11-18T09:30:30;101104.13;;;-0.25;83.09
78223;BME280;67497;53.058;21.618;2023-11-18T09:32:33;101108.16;;;-0.15;83.05
78223;BME280;67497;53.058;21.618;2023-11-18T09:34:34;101100.81;;;-0.31;83.08
78223;BME280;67497;53.058;21.618;2023-11-18T09:36:34;101100.94;;;-0.34;83.32
78223;BME280;67497;53.058;21.618;2023-11-18T09:38:38;101103.38;;;-0.28;83.31
78223;BME280;67497;53.058;21.618;2023-11-18T09:40:43;101090.06;;;-0.31;82.60
78223;BME280;67497;53.058;21.618;2023-11-18T09:42:43;101099.56;;;-0.23;82.90
78223;BME280;67497;53.058;21.618;2023-11-18T09:44:44;101112.06;;;-0.02;82.28
78223;BME280;67497;53.058;21.618;2023-11-18T09:46:48;101106.63;;;0.00;82.11
78223;BME280;67497;53.058;21.618;2023-11-18T09:49:13;101112.28;;;-0.06;82.77
78223;BME280;67497;53.058;21.618;2023-11-18T09:51:22;101120.22;;;0.17;81.34
78223;BME280;67497;53.058;21.618;2023-11-18T09:53:22;101112.34;;;0.13;81.54
78223;BME280;67497;53.058;21.618;2023-11-18T09:55:38;101096.31;;;0.10;80.96
78223;BME280;67497;53.058;21.618;2023-11-18T09:57:44;101114.69;;;0.20;80.96
78223;BME280;67497;53.058;21.618;2023-11-18T10:00:04;101133.59;;;0.39;80.61
78223;BME280;67497;53.058;21.618;2023-11-18T10:02:22;101071.16;;;-0.10;81.29
78223;BME280;67497;53.058;21.618;2023-11-18T10:04:24;101135.50;;;0.17;80.99
78223;BME280;67497;53.058;21.618;2023-11-18T10:06:34;101085.34;;;-0.26;81.46
78223;BME280;67497;53.058;21.618;2023-11-18T10:08:58;101132.09;;;0.13;80.70
78223;BME280;67497;53.058;21.618;2023-11-18T10:11:15;101078.91;;;-0.22;80.59
78223;BME280;67497;53.058;21.618;2023-11-18T10:13:15;101108.38;;;-0.19;80.74
78223;BME280;67497;53.058;21.618;2023-11-18T10:15:27;101067.19;;;-0.41;80.36
78223;BME280;67497;53.058;21.618;2023-11-18T10:19:55;101128.41;;;0.34;79.12
78223;BME280;67497;53.058;21.618;2023-11-18T10:21:55;101114.41;;;0.26;78.87
78223;BME280;67497;53.058;21.618;2023-11-18T10:24:00;101125.59;;;0.37;78.72
78223;BME280;67497;53.058;21.618;2023-11-18T10:33:07;101120.00;;;0.60;77.36
78223;BME280;67497;53.058;21.618;2023-11-18T10:35:08;101117.69;;;0.33;78.64
78223;BME280;67497;53.058;21.618;2023-11-18T10:37:10;101119.88;;;0.64;77.98
78223;BME280;67497;53.058;21.618;2023-11-18T10:39:13;101109.81;;;0.67;77.65